createdAt,value
2022-10-26T00:01:12.389Z,93.60
2022-10-26T00:03:41.238Z,93.70
2022-10-26T00:06:12.811Z,93.70
2022-10-26T00:08:39.627Z,93.80
2022-10-26T00:11:07.276Z,93.90
2022-10-26T00:13:34.638Z,93.90
2022-10-26T00:16:01.850Z,94.00
2022-10-26T00:18:28.938Z,94.20
2022-10-26T00:20:55.719Z,94.30
2022-10-26T00:23:22.409Z,94.20
2022-10-26T00:25:56.375Z,94.20
2022-10-26T00:28:23.119Z,94.10
2022-10-26T00:30:49.946Z,94.10
2022-10-26T00:33:17.039Z,93.80
2022-10-26T00:35:47.459Z,94.30
2022-10-26T00:38:14.372Z,94.00
2022-10-26T00:40:41.245Z,94.30
2022-10-26T00:43:35.159Z,94.30
2022-10-26T00:46:02.440Z,94.00
2022-10-26T00:48:34.413Z,93.80
2022-10-26T00:51:05.925Z,93.80
2022-10-26T00:53:33.360Z,94.10
2022-10-26T00:56:01.987Z,93.90
2022-10-26T00:58:29.284Z,94.10
2022-10-26T01:00:56.033Z,94.10
2022-10-26T01:03:25.278Z,94.20
2022-10-26T01:05:56.355Z,93.90
2022-10-26T01:08:23.939Z,94.00
2022-10-26T01:10:51.573Z,93.90
2022-10-26T01:13:19.008Z,93.80
2022-10-26T01:16:07.902Z,93.70
2022-10-26T01:18:46.962Z,93.70
2022-10-26T01:21:46.602Z,93.60
2022-10-26T01:24:24.121Z,93.60
2022-10-26T01:27:17.065Z,93.80
2022-10-26T01:29:50.014Z,93.60
2022-10-26T01:32:26.366Z,93.80
2022-10-26T01:34:58.075Z,93.80
2022-10-26T01:37:30.170Z,93.80
2022-10-26T01:40:31.061Z,94.10
2022-10-26T01:43:02.634Z,94.10
2022-10-26T01:45:30.458Z,93.90
2022-10-26T01:48:01.970Z,93.80
2022-10-26T01:50:30.059Z,93.80
2022-10-26T01:52:56.826Z,94.00
2022-10-26T01:55:38.652Z,93.90
2022-10-26T01:58:20.361Z,94.10
2022-10-26T02:01:03.964Z,93.90
2022-10-26T02:03:46.076Z,93.90
2022-10-26T02:06:24.035Z,93.90
2022-10-26T02:08:55.950Z,93.70
2022-10-26T02:11:28.804Z,93.80
2022-10-26T02:14:20.412Z,94.00
2022-10-26T02:17:08.502Z,93.80
2022-10-26T02:19:41.028Z,93.90
2022-10-26T02:22:24.315Z,93.70
2022-10-26T02:24:53.554Z,93.60
2022-10-26T02:27:27.423Z,93.60
2022-10-26T02:29:56.366Z,93.40
2022-10-26T02:32:27.677Z,93.30
2022-10-26T02:34:57.686Z,93.20
2022-10-26T02:37:26.502Z,93.50
2022-10-26T02:39:55.959Z,93.60
2022-10-26T02:42:25.004Z,93.60
2022-10-26T02:45:00.073Z,93.70
2022-10-26T02:47:27.511Z,93.40
2022-10-26T02:49:55.659Z,93.60
2022-10-26T02:52:40.932Z,93.20
2022-10-26T02:55:10.871Z,93.20
2022-10-26T02:57:40.575Z,93.20
2022-10-26T03:00:14.248Z,93.70
2022-10-26T03:02:47.562Z,94.00
2022-10-26T03:05:19.469Z,93.90
2022-10-26T03:07:46.257Z,93.80
2022-10-26T03:10:13.042Z,93.90
2022-10-26T03:12:39.766Z,94.20
2022-10-26T03:15:07.199Z,94.10
2022-10-26T03:17:33.910Z,94.00
2022-10-26T03:20:00.623Z,93.90
2022-10-26T03:22:27.482Z,93.90
2022-10-26T03:24:54.191Z,93.90
2022-10-26T03:27:21.122Z,93.80
2022-10-26T03:29:48.069Z,94.10
2022-10-26T03:32:15.006Z,94.40
2022-10-26T03:34:41.728Z,94.40
2022-10-26T03:37:08.439Z,94.40
2022-10-26T03:39:35.230Z,94.40
2022-10-26T03:42:02.038Z,94.40
2022-10-26T03:44:29.235Z,94.50
2022-10-26T03:46:55.954Z,94.50
2022-10-26T03:49:22.695Z,94.70
2022-10-26T03:51:49.406Z,94.70
2022-10-26T03:54:16.192Z,94.90
2022-10-26T03:56:42.882Z,94.90
2022-10-26T03:59:09.581Z,94.80
2022-10-26T04:01:36.457Z,94.70
2022-10-26T04:04:03.386Z,94.80
2022-10-26T04:06:30.182Z,94.70
2022-10-26T04:09:02.278Z,94.70
2022-10-26T04:11:29.794Z,94.80
2022-10-26T04:13:59.637Z,94.80
2022-10-26T04:16:30.980Z,94.70
2022-10-26T04:19:00.492Z,94.30
2022-10-26T04:21:27.254Z,94.40
2022-10-26T04:23:53.960Z,94.20
2022-10-26T04:26:20.800Z,94.20
2022-10-26T04:28:47.515Z,94.20
2022-10-26T04:31:14.253Z,94.20
2022-10-26T04:33:41.018Z,94.30
2022-10-26T04:36:08.296Z,94.20
2022-10-26T04:38:35.021Z,94.20
2022-10-26T04:41:01.850Z,94.40
2022-10-26T04:43:28.877Z,94.50
2022-10-26T04:45:56.791Z,94.60
2022-10-26T04:50:52.099Z,94.30
2022-10-26T04:53:18.872Z,94.30
2022-10-26T04:55:45.586Z,94.20
2022-10-26T04:58:12.664Z,94.30
2022-10-26T05:00:39.496Z,94.00
2022-10-26T05:03:07.739Z,94.00
2022-10-26T05:05:36.190Z,94.30
2022-10-26T05:08:03.946Z,94.40
2022-10-26T05:10:30.833Z,94.10
2022-10-26T05:13:00.095Z,94.20
2022-10-26T05:15:28.097Z,94.40
2022-10-26T05:17:57.338Z,94.20
2022-10-26T05:20:29.675Z,94.00
2022-10-26T05:22:57.804Z,94.30
2022-10-26T05:25:25.495Z,94.30
2022-10-26T05:27:52.276Z,94.10
2022-10-26T05:30:19.447Z,94.10
2022-10-26T05:32:57.431Z,94.10
2022-10-26T05:35:25.730Z,94.20
2022-10-26T05:37:53.599Z,94.40
2022-10-26T05:40:20.568Z,94.40
2022-10-26T05:42:47.617Z,94.50
2022-10-26T05:45:14.917Z,94.50
2022-10-26T05:47:42.907Z,94.50
2022-10-26T05:50:11.061Z,94.70
2022-10-26T05:52:42.011Z,94.70
2022-10-26T05:55:10.355Z,94.70
2022-10-26T05:57:37.648Z,94.80
2022-10-26T06:00:08.360Z,94.70
2022-10-26T06:03:09.601Z,95.10
2022-10-26T06:05:45.802Z,95.10
2022-10-26T06:08:13.013Z,94.90
2022-10-26T06:10:40.215Z,94.90
2022-10-26T06:13:07.195Z,94.90
2022-10-26T06:15:46.625Z,94.90
2022-10-26T06:18:36.247Z,95.00
2022-10-26T06:21:39.234Z,95.00
2022-10-26T06:24:06.060Z,95.00
2022-10-26T06:27:18.702Z,95.20
2022-10-26T06:29:57.441Z,95.30
2022-10-26T06:32:27.401Z,95.10
2022-10-26T06:35:10.794Z,95.20
2022-10-26T06:37:38.880Z,95.00
2022-10-26T06:40:06.874Z,95.10
2022-10-26T06:42:33.907Z,95.30
2022-10-26T06:45:00.943Z,95.30
2022-10-26T06:47:38.890Z,95.10
2022-10-26T06:50:27.745Z,95.10
2022-10-26T06:52:57.494Z,95.20
2022-10-26T06:55:26.743Z,95.20
2022-10-26T06:57:53.936Z,95.00
2022-10-26T07:00:23.201Z,94.80
2022-10-26T07:02:50.517Z,94.90
2022-10-26T07:05:17.718Z,94.80
2022-10-26T07:07:46.572Z,94.60
2022-10-26T07:10:15.032Z,94.50
2022-10-26T07:12:41.819Z,94.50
2022-10-26T07:17:49.456Z,94.70
2022-10-26T07:20:19.353Z,94.50
2022-10-26T07:22:52.508Z,94.50
2022-10-26T07:25:19.440Z,94.50
2022-10-26T07:27:46.535Z,94.20
2022-10-26T07:30:14.569Z,94.20
2022-10-26T07:32:41.342Z,94.20
2022-10-26T07:35:08.399Z,94.00
2022-10-26T07:37:35.361Z,94.10
2022-10-26T07:40:05.668Z,94.50
2022-10-26T07:42:33.931Z,94.40
2022-10-26T07:45:00.685Z,94.10
2022-10-26T07:47:27.404Z,94.30
2022-10-26T07:49:54.171Z,94.30
2022-10-26T07:52:20.925Z,94.40
2022-10-26T07:54:48.483Z,94.00
2022-10-26T07:57:17.469Z,93.90
2022-10-26T07:59:44.641Z,93.60
2022-10-26T08:02:11.522Z,93.90
2022-10-26T08:04:38.299Z,93.50
2022-10-26T08:07:05.025Z,93.10
2022-10-26T08:09:31.768Z,92.60
2022-10-26T08:11:58.501Z,92.80
2022-10-26T08:14:25.249Z,92.80
2022-10-26T08:16:52.558Z,92.70
2022-10-26T08:19:19.857Z,92.00
2022-10-26T08:21:46.750Z,92.40
2022-10-26T08:24:13.623Z,92.50
2022-10-26T08:26:40.938Z,92.50
2022-10-26T08:29:07.872Z,92.30
2022-10-26T08:31:34.707Z,91.90
2022-10-26T08:34:01.906Z,92.00
2022-10-26T08:36:29.156Z,92.20
2022-10-26T08:38:55.981Z,91.80
2022-10-26T08:41:37.961Z,92.20
2022-10-26T08:44:23.461Z,92.60
2022-10-26T08:46:55.471Z,92.80
2022-10-26T08:49:30.394Z,93.20
2022-10-26T08:52:01.379Z,93.40
2022-10-26T08:54:42.558Z,93.50
2022-10-26T08:57:25.799Z,93.60
2022-10-26T09:00:02.436Z,93.70
2022-10-26T09:02:30.142Z,94.00
2022-10-26T09:04:59.359Z,93.80
2022-10-26T09:07:45.213Z,93.90
2022-10-26T09:13:06.595Z,93.70
2022-10-26T09:15:52.164Z,93.20
2022-10-26T09:18:38.931Z,92.90
2022-10-26T09:21:36.697Z,92.90
2022-10-26T09:24:21.923Z,92.60
2022-10-26T09:27:02.365Z,92.60
2022-10-26T09:29:38.356Z,92.10
2022-10-26T09:32:10.335Z,92.20
2022-10-26T09:34:47.429Z,92.20
2022-10-26T09:37:22.976Z,92.00
2022-10-26T09:40:13.648Z,91.50
2022-10-26T09:42:53.749Z,91.50
2022-10-26T09:45:25.542Z,91.40
2022-10-26T09:47:54.763Z,91.10
2022-10-26T09:50:34.976Z,91.30
2022-10-26T09:53:02.576Z,91.30
2022-10-26T09:55:31.595Z,91.30
2022-10-26T09:58:02.611Z,91.30
2022-10-26T10:00:30.635Z,91.10
2022-10-26T10:02:58.820Z,90.50
2022-10-26T10:05:52.586Z,89.60
2022-10-26T10:08:27.419Z,89.20
2022-10-26T10:11:11.377Z,88.80
2022-10-26T10:13:43.423Z,87.70
2022-10-26T10:16:22.111Z,87.30
2022-10-26T10:19:01.691Z,86.30
2022-10-26T10:21:40.366Z,86.70
2022-10-26T10:24:31.325Z,86.60
2022-10-26T10:27:04.436Z,84.70
2022-10-26T10:29:41.019Z,82.80
2022-10-26T10:32:21.802Z,84.20
2022-10-26T10:34:54.604Z,84.00
2022-10-26T10:37:47.883Z,85.00
2022-10-26T10:40:19.554Z,84.00
2022-10-26T10:42:47.691Z,83.80
2022-10-26T10:45:27.725Z,84.20
2022-10-26T10:48:05.653Z,83.20
2022-10-26T10:50:34.016Z,84.30
2022-10-26T10:53:23.506Z,82.80
2022-10-26T10:56:14.921Z,83.50
2022-10-26T10:59:07.774Z,83.30
2022-10-26T11:01:49.815Z,83.40
2022-10-26T11:04:19.761Z,83.00
2022-10-26T11:06:48.477Z,82.30
2022-10-26T11:09:19.946Z,82.80
2022-10-26T11:11:55.096Z,81.70
2022-10-26T11:14:46.401Z,83.40
2022-10-26T11:17:32.146Z,82.20
2022-10-26T11:20:14.938Z,82.40
2022-10-26T11:22:58.367Z,83.30
2022-10-26T11:25:34.232Z,83.30
2022-10-26T11:28:25.878Z,82.80
2022-10-26T11:30:59.019Z,82.50
2022-10-26T11:33:32.623Z,82.80
2022-10-26T11:36:10.087Z,82.60
2022-10-26T11:39:06.526Z,82.70
2022-10-26T11:41:45.517Z,82.60
2022-10-26T11:44:24.242Z,83.10
2022-10-26T11:47:03.762Z,82.00
2022-10-26T11:50:01.888Z,82.80
2022-10-26T11:52:49.213Z,81.10
2022-10-26T11:55:18.243Z,81.20
2022-10-26T11:57:46.747Z,81.20
2022-10-26T12:00:17.491Z,81.50
2022-10-26T12:02:56.642Z,81.50
2022-10-26T12:05:40.244Z,81.50
2022-10-26T12:08:36.339Z,82.30
2022-10-26T12:11:03.232Z,81.40
2022-10-26T12:13:42.273Z,81.40
2022-10-26T12:16:43.043Z,81.30
2022-10-26T12:19:31.708Z,82.70
2022-10-26T12:21:59.461Z,82.80
2022-10-26T12:24:35.312Z,81.80
2022-10-26T12:27:06.753Z,82.00
2022-10-26T12:29:43.038Z,81.70
2022-10-26T12:32:28.716Z,81.50
2022-10-26T12:34:55.791Z,81.30
2022-10-26T12:37:30.842Z,82.70
2022-10-26T12:40:33.214Z,83.10
2022-10-26T12:43:15.480Z,81.60
2022-10-26T12:45:44.095Z,82.20
2022-10-26T12:48:39.023Z,82.80
2022-10-26T12:51:27.329Z,82.40
2022-10-26T12:54:04.800Z,81.90
2022-10-26T12:57:20.822Z,81.90
2022-10-26T13:00:02.998Z,82.00
2022-10-26T13:02:54.723Z,81.40
2022-10-26T13:06:04.416Z,83.00
2022-10-26T13:08:51.028Z,82.70
2022-10-26T13:11:49.360Z,82.50
2022-10-26T13:14:24.646Z,82.10
2022-10-26T13:16:52.087Z,82.80
2022-10-26T13:19:46.988Z,82.60
2022-10-26T13:22:20.903Z,81.90
2022-10-26T13:24:52.366Z,80.50
2022-10-26T13:27:19.109Z,81.70
2022-10-26T13:30:04.103Z,81.00
2022-10-26T13:32:39.033Z,82.00
2022-10-26T13:35:11.739Z,82.00
2022-10-26T13:37:46.359Z,82.20
2022-10-26T13:40:18.552Z,82.30
2022-10-26T13:42:57.592Z,81.90
2022-10-26T13:45:58.589Z,82.90
2022-10-26T13:48:40.420Z,83.00
2022-10-26T13:51:24.243Z,82.70
2022-10-26T13:54:03.208Z,83.20
2022-10-26T13:57:11.573Z,83.70
2022-10-26T13:59:43.125Z,83.40
2022-10-26T14:02:19.164Z,83.20
2022-10-26T14:05:05.714Z,83.40
2022-10-26T14:07:57.485Z,84.10
2022-10-26T14:10:28.081Z,84.70
2022-10-26T14:12:55.486Z,85.10
2022-10-26T14:15:30.714Z,84.90
2022-10-26T14:18:01.041Z,85.60
2022-10-26T14:20:32.127Z,85.40
2022-10-26T14:22:59.293Z,85.90
2022-10-26T14:25:41.711Z,86.20
2022-10-26T14:28:31.887Z,86.50
2022-10-26T14:31:21.896Z,87.10
2022-10-26T14:33:48.833Z,86.80
2022-10-26T14:36:18.822Z,86.80
2022-10-26T14:38:49.168Z,86.80
2022-10-26T14:41:17.475Z,86.80
2022-10-26T14:43:45.680Z,86.90
2022-10-26T14:46:21.610Z,87.10
2022-10-26T14:49:13.231Z,87.00
2022-10-26T14:51:40.249Z,87.20
2022-10-26T14:54:23.888Z,86.90
2022-10-26T14:56:51.090Z,86.80
2022-10-26T14:59:32.287Z,86.80
2022-10-26T15:02:11.288Z,86.60
2022-10-26T15:04:41.755Z,83.30
2022-10-26T15:07:08.618Z,81.60
2022-10-26T15:09:47.383Z,81.00
2022-10-26T15:12:37.887Z,82.10
2022-10-26T15:15:19.456Z,80.90
2022-10-26T15:17:56.019Z,80.20
2022-10-26T15:20:29.497Z,79.40
2022-10-26T15:23:02.738Z,78.90
2022-10-26T15:25:32.758Z,79.50
2022-10-26T15:28:24.577Z,79.90
2022-10-26T15:31:24.529Z,81.50
2022-10-26T15:33:52.121Z,82.40
2022-10-26T15:36:20.949Z,83.00
2022-10-26T15:38:48.765Z,84.00
2022-10-26T15:41:24.364Z,84.80
2022-10-26T15:43:58.822Z,85.60
2022-10-26T15:46:38.968Z,85.70
2022-10-26T15:49:21.053Z,86.10
2022-10-26T15:52:09.116Z,86.40
2022-10-26T15:54:55.825Z,86.80
2022-10-26T15:57:42.578Z,87.60
2022-10-26T16:00:29.246Z,87.70
2022-10-26T16:03:24.529Z,88.20
2022-10-26T16:06:17.947Z,88.50
2022-10-26T16:09:06.479Z,88.70
2022-10-26T16:11:53.201Z,88.90
2022-10-26T16:14:23.849Z,89.00
2022-10-26T16:16:52.215Z,89.10
2022-10-26T16:19:30.384Z,89.10
2022-10-26T16:21:58.398Z,89.10
2022-10-26T16:24:25.770Z,89.10
2022-10-26T16:26:52.808Z,89.50
2022-10-26T16:29:20.336Z,89.60
2022-10-26T16:31:48.689Z,89.70
2022-10-26T16:34:16.326Z,89.80
2022-10-26T16:36:44.276Z,89.90
2022-10-26T16:39:12.983Z,90.10
2022-10-26T16:41:41.259Z,90.10
2022-10-26T16:44:28.060Z,90.30
2022-10-26T16:46:56.728Z,90.50
2022-10-26T16:49:25.766Z,90.50
2022-10-26T16:51:57.450Z,90.30
2022-10-26T16:54:31.076Z,90.30
2022-10-26T16:57:08.863Z,90.30
2022-10-26T16:59:36.588Z,90.40
2022-10-26T17:02:04.500Z,90.50
2022-10-26T17:04:31.334Z,90.70
2022-10-26T17:06:58.104Z,90.80
2022-10-26T17:09:24.944Z,90.90
2022-10-26T17:11:51.688Z,91.30
2022-10-26T17:14:18.762Z,91.30
2022-10-26T17:16:45.770Z,91.20
2022-10-26T17:19:12.767Z,91.10
2022-10-26T17:21:39.572Z,91.10
2022-10-26T17:24:07.082Z,91.10
2022-10-26T17:26:33.826Z,91.00
2022-10-26T17:29:00.592Z,91.00
2022-10-26T17:31:27.528Z,90.90
2022-10-26T17:33:56.358Z,90.80
2022-10-26T17:36:25.538Z,90.80
2022-10-26T17:38:54.668Z,91.00
2022-10-26T17:41:22.508Z,91.20
2022-10-26T17:43:50.224Z,91.30
2022-10-26T17:46:23.915Z,91.60
2022-10-26T17:48:55.809Z,91.70
2022-10-26T17:51:23.270Z,91.70
2022-10-26T17:53:50.989Z,91.90
2022-10-26T17:56:20.374Z,92.00
2022-10-26T17:58:55.508Z,91.90
2022-10-26T18:01:23.351Z,92.10
2022-10-26T18:03:50.892Z,92.20
2022-10-26T18:06:18.200Z,92.40
2022-10-26T18:08:48.051Z,92.70
2022-10-26T18:11:26.206Z,92.70
2022-10-26T18:13:54.791Z,92.70
2022-10-26T18:16:23.482Z,92.70
2022-10-26T18:19:02.043Z,92.80
2022-10-26T18:21:31.811Z,92.80
2022-10-26T18:23:59.271Z,92.90
2022-10-26T18:26:31.402Z,93.10
2022-10-26T18:29:00.343Z,93.30
2022-10-26T18:31:28.697Z,93.50
2022-10-26T18:33:57.636Z,93.50
2022-10-26T18:36:25.387Z,93.60
2022-10-26T18:38:52.560Z,93.60
2022-10-26T18:41:21.208Z,93.60
2022-10-26T18:43:50.714Z,93.60
2022-10-26T18:46:25.295Z,93.70
2022-10-26T18:48:52.779Z,93.60
2022-10-26T18:51:22.371Z,93.60
2022-10-26T18:53:49.442Z,93.70
2022-10-26T18:56:18.551Z,93.70
2022-10-26T18:58:48.226Z,93.80
2022-10-26T19:01:23.473Z,93.70
2022-10-26T19:03:57.279Z,93.90
2022-10-26T19:06:32.745Z,93.90
2022-10-26T19:08:59.803Z,94.00
2022-10-26T19:11:28.267Z,94.10
2022-10-26T19:13:55.678Z,94.10
2022-10-26T19:16:44.670Z,94.00
2022-10-26T19:19:11.465Z,94.00
2022-10-26T19:21:38.348Z,94.00
2022-10-26T19:24:07.743Z,94.00
2022-10-26T19:26:37.780Z,94.10
2022-10-26T19:29:07.514Z,94.10
2022-10-26T19:31:38.112Z,94.20
2022-10-26T19:34:06.037Z,94.30
2022-10-26T19:36:33.767Z,94.30
2022-10-26T19:39:00.932Z,94.20
2022-10-26T19:41:28.191Z,94.30
2022-10-26T19:43:56.363Z,94.30
2022-10-26T19:46:25.903Z,94.20
2022-10-26T19:48:57.835Z,94.20
2022-10-26T19:51:25.856Z,94.20
2022-10-26T19:53:53.200Z,94.20
2022-10-26T19:56:20.684Z,94.00
2022-10-26T19:58:50.513Z,93.70
2022-10-26T20:01:18.182Z,93.70
2022-10-26T20:03:47.818Z,93.60
2022-10-26T20:06:15.481Z,93.70
2022-10-26T20:08:45.005Z,93.80
2022-10-26T20:11:15.504Z,93.80
2022-10-26T20:13:44.400Z,93.80
2022-10-26T20:16:12.054Z,94.00
2022-10-26T20:18:42.630Z,94.00
2022-10-26T20:21:15.937Z,94.00
2022-10-26T20:23:43.535Z,93.90
2022-10-26T20:26:18.026Z,93.90
2022-10-26T20:28:51.359Z,93.80
2022-10-26T20:31:19.442Z,93.80
2022-10-26T20:33:50.809Z,93.40
2022-10-26T20:36:17.542Z,93.90
2022-10-26T20:38:44.573Z,94.00
2022-10-26T20:41:12.870Z,93.60
2022-10-26T20:43:41.002Z,93.90
2022-10-26T20:46:11.199Z,94.00
2022-10-26T20:48:38.675Z,94.30
2022-10-26T20:51:19.640Z,93.80
2022-10-26T20:54:17.172Z,93.50
2022-10-26T20:56:45.232Z,93.00
2022-10-26T20:59:37.882Z,92.70
2022-10-26T21:02:04.724Z,92.50
2022-10-26T21:04:31.577Z,92.50
2022-10-26T21:06:58.303Z,92.20
2022-10-26T21:09:26.117Z,92.20
2022-10-26T21:11:57.627Z,91.80
2022-10-26T21:14:24.720Z,91.80
2022-10-26T21:16:51.489Z,91.90
2022-10-26T21:19:19.290Z,91.90
2022-10-26T21:21:46.225Z,91.40
2022-10-26T21:24:13.103Z,91.80
2022-10-26T21:26:39.830Z,92.10
2022-10-26T21:29:06.526Z,92.30
2022-10-26T21:31:33.456Z,92.80
2022-10-26T21:34:00.203Z,93.60
2022-10-26T21:36:27.401Z,94.10
2022-10-26T21:38:54.186Z,94.30
2022-10-26T21:41:21.684Z,94.20
2022-10-26T21:43:59.084Z,93.50
2022-10-26T21:46:36.999Z,93.70
2022-10-26T21:49:04.105Z,93.90
2022-10-26T21:51:30.853Z,94.20
2022-10-26T21:53:58.350Z,94.40
2022-10-26T21:56:25.042Z,94.30
2022-10-26T21:58:51.780Z,94.50
2022-10-26T22:01:20.844Z,94.70
2022-10-26T22:03:48.543Z,94.70
2022-10-26T22:08:49.679Z,94.10
2022-10-26T22:11:21.752Z,94.50
2022-10-26T22:13:49.881Z,94.80
2022-10-26T22:16:22.854Z,95.00
2022-10-26T22:18:50.909Z,95.00
2022-10-26T22:21:18.994Z,95.00
2022-10-26T22:23:46.660Z,94.80
2022-10-26T22:26:15.906Z,93.90
2022-10-26T22:28:44.368Z,94.20
2022-10-26T22:31:20.262Z,94.50
2022-10-26T22:33:52.708Z,94.10
2022-10-26T22:36:19.893Z,94.30
2022-10-26T22:38:46.891Z,94.40
2022-10-26T22:41:13.649Z,94.60
2022-10-26T22:43:40.420Z,94.80
2022-10-26T22:46:12.681Z,94.80
2022-10-26T22:48:41.243Z,94.90
2022-10-26T22:51:10.698Z,94.80
2022-10-26T22:53:37.860Z,94.50
2022-10-26T22:56:07.153Z,94.60
2022-10-26T22:58:37.806Z,94.70
2022-10-26T23:01:26.807Z,94.60
2022-10-26T23:03:56.130Z,94.40
2022-10-26T23:06:24.812Z,95.10
2022-10-26T23:08:51.632Z,95.40
2022-10-26T23:11:20.675Z,95.20
2022-10-26T23:13:47.654Z,95.20
2022-10-26T23:16:17.927Z,94.90
2022-10-26T23:18:45.026Z,95.00
2022-10-26T23:21:13.174Z,95.10
2022-10-26T23:23:40.906Z,95.10
2022-10-26T23:26:13.264Z,95.20
2022-10-26T23:28:41.376Z,95.00
2022-10-26T23:31:14.365Z,95.00
2022-10-26T23:33:41.137Z,95.00
2022-10-26T23:36:07.974Z,94.90
2022-10-26T23:38:34.738Z,94.70
2022-10-26T23:41:01.650Z,94.80
2022-10-26T23:43:28.975Z,94.90
2022-10-26T23:45:56.112Z,95.00
2022-10-26T23:48:23.371Z,94.90
2022-10-26T23:50:50.802Z,93.90
2022-10-26T23:53:20.473Z,94.00
2022-10-26T23:55:48.064Z,94.70
2022-10-26T23:58:16.195Z,95.10
